createdAt,value
2017-12-15T00:00:25.934Z,2.2
2017-12-15T00:01:48.172Z,2.2
2017-12-15T00:03:10.475Z,2.2
2017-12-15T00:04:30.228Z,2.2
2017-12-15T00:05:52.535Z,2.2
2017-12-15T00:07:12.236Z,2.1
2017-12-15T00:08:31.937Z,2.1
2017-12-15T00:09:51.667Z,2.1
2017-12-15T00:11:11.381Z,2
2017-12-15T00:12:31.097Z,2.1
2017-12-15T00:13:53.344Z,2.1
2017-12-15T00:15:13.054Z,2.1
2017-12-15T00:16:32.768Z,2.1
2017-12-15T00:17:57.558Z,2.1
2017-12-15T00:19:17.282Z,2.1
2017-12-15T00:20:44.571Z,2.1
2017-12-15T00:22:06.812Z,2.1
2017-12-15T00:23:29.033Z,2.2
2017-12-15T00:24:48.767Z,2.1
2017-12-15T00:26:11.060Z,2.1
2017-12-15T00:27:30.803Z,2.1
2017-12-15T00:28:50.534Z,2.2
2017-12-15T00:30:10.247Z,2.2
2017-12-15T00:31:32.499Z,2.2
2017-12-15T00:32:52.248Z,2.2
2017-12-15T00:34:14.477Z,2.1
2017-12-15T00:35:36.764Z,2.1
2017-12-15T00:36:58.989Z,2.1
2017-12-15T00:38:26.329Z,2.1
2017-12-15T00:39:46.080Z,2.1
2017-12-15T00:41:05.871Z,2.1
2017-12-15T00:42:25.593Z,2.1
2017-12-15T00:43:45.335Z,2.1
2017-12-15T00:45:05.037Z,2.1
2017-12-15T00:46:24.815Z,2.1
2017-12-15T00:47:52.115Z,2.1
2017-12-15T00:49:16.915Z,2.1
2017-12-15T00:50:41.690Z,2.1
2017-12-15T00:52:01.395Z,2.1
2017-12-15T00:53:26.211Z,2.1
2017-12-15T00:54:48.464Z,2.2
2017-12-15T00:56:08.161Z,2.2
2017-12-15T00:57:27.871Z,2.1
2017-12-15T00:58:47.565Z,2.1
2017-12-15T01:00:07.276Z,2.1
2017-12-15T01:01:34.633Z,2.2
2017-12-15T01:02:59.403Z,2.2
2017-12-15T01:04:19.104Z,2.2
2017-12-15T01:05:38.873Z,2.2
2017-12-15T01:06:58.627Z,2.2
2017-12-15T01:08:18.333Z,2.2
2017-12-15T01:09:38.095Z,2.2
2017-12-15T01:11:00.366Z,2.2
2017-12-15T01:12:22.587Z,2.3
2017-12-15T01:13:44.865Z,2.2
2017-12-15T01:15:04.596Z,2.2
2017-12-15T01:16:31.970Z,2.2
2017-12-15T01:17:51.674Z,2.2
2017-12-15T01:19:16.435Z,2.2
2017-12-15T01:20:38.690Z,2.2
2017-12-15T01:21:58.413Z,2.1
2017-12-15T01:23:28.318Z,2
2017-12-15T01:24:53.116Z,2
2017-12-15T01:26:17.873Z,2
2017-12-15T01:27:40.171Z,2.1
2017-12-15T01:28:59.894Z,2
2017-12-15T01:30:29.790Z,2
2017-12-15T01:31:49.561Z,2.1
2017-12-15T01:33:11.805Z,2
2017-12-15T01:34:31.513Z,2
2017-12-15T01:35:56.283Z,2
2017-12-15T01:37:21.106Z,2
2017-12-15T01:38:40.843Z,2.1
2017-12-15T01:40:00.566Z,2.1
2017-12-15T01:41:25.382Z,2.1
2017-12-15T01:42:47.645Z,2.1
2017-12-15T01:44:07.394Z,2.1
2017-12-15T01:45:27.098Z,2.2
2017-12-15T01:46:46.859Z,2.2
2017-12-15T01:48:06.555Z,2.2
2017-12-15T01:49:26.273Z,2.2
2017-12-15T01:50:51.031Z,2.2
2017-12-15T01:52:15.801Z,2.2
2017-12-15T01:53:35.558Z,2.2
2017-12-15T01:54:57.822Z,2.2
2017-12-15T01:56:17.543Z,2.2
2017-12-15T01:57:39.798Z,2.2
2017-12-15T01:58:59.568Z,2.2
2017-12-15T02:00:19.334Z,2.3
2017-12-15T02:01:46.688Z,2.2
2017-12-15T02:03:08.961Z,2.3
2017-12-15T02:04:31.184Z,2.3
2017-12-15T02:05:50.889Z,2.3
2017-12-15T02:07:10.656Z,2.3
2017-12-15T02:08:30.446Z,2.3
2017-12-15T02:09:50.190Z,2.3
2017-12-15T02:11:12.452Z,2.3
2017-12-15T02:12:32.154Z,2.2
2017-12-15T02:13:54.386Z,2.2
2017-12-15T02:15:19.187Z,2.3
2017-12-15T02:16:38.923Z,2.3
2017-12-15T02:18:11.268Z,2.3
2017-12-15T02:19:33.512Z,2.3
2017-12-15T02:21:03.352Z,2.3
2017-12-15T02:22:23.109Z,2.3
2017-12-15T02:23:42.823Z,2.3
2017-12-15T02:25:02.516Z,2.3
2017-12-15T02:26:22.243Z,2.3
2017-12-15T02:27:46.996Z,2.2
2017-12-15T02:29:06.753Z,2.2
2017-12-15T02:30:26.492Z,2.2
2017-12-15T02:31:46.203Z,2.2
2017-12-15T02:33:16.046Z,2.3
2017-12-15T02:34:38.328Z,2.2
2017-12-15T02:36:08.165Z,2.2
2017-12-15T02:37:27.865Z,2.2
2017-12-15T02:38:50.137Z,2.2
2017-12-15T02:40:12.363Z,2.2
2017-12-15T02:41:32.084Z,2.2
2017-12-15T02:43:09.495Z,2.2
2017-12-15T02:44:29.266Z,2.2
2017-12-15T02:45:54.033Z,2.2
2017-12-15T02:47:16.297Z,2.2
2017-12-15T02:48:35.996Z,2.2
2017-12-15T02:49:55.726Z,2.2
2017-12-15T02:51:15.510Z,2.2
2017-12-15T02:52:37.751Z,2.2
2017-12-15T02:54:02.525Z,2.2
2017-12-15T02:55:24.800Z,2.3
2017-12-15T02:56:52.112Z,2.2
2017-12-15T02:58:11.859Z,2.3
2017-12-15T02:59:31.575Z,2.2
2017-12-15T03:00:51.291Z,2.2
2017-12-15T03:02:11.005Z,2.1
2017-12-15T03:03:30.698Z,2.1
2017-12-15T03:04:52.946Z,2.1
2017-12-15T03:06:15.226Z,2.1
2017-12-15T03:07:34.959Z,2.1
2017-12-15T03:08:54.709Z,2.2
2017-12-15T03:10:14.439Z,2.2
2017-12-15T03:11:34.232Z,2.3
2017-12-15T03:12:56.496Z,2.2
2017-12-15T03:14:18.723Z,2.2
2017-12-15T03:15:40.989Z,2.2
2017-12-15T03:17:00.699Z,2.2
2017-12-15T03:18:20.416Z,2.2
2017-12-15T03:19:42.657Z,2.2
2017-12-15T03:21:04.936Z,2.2
2017-12-15T03:22:24.693Z,2.2
2017-12-15T03:23:52.035Z,2.2
2017-12-15T03:25:11.727Z,2.2
2017-12-15T03:26:31.430Z,2.2
2017-12-15T03:27:51.187Z,2.2
2017-12-15T03:29:10.898Z,2.1
2017-12-15T03:30:33.127Z,2.1
2017-12-15T03:31:57.897Z,2.1
2017-12-15T03:33:17.632Z,2.1
2017-12-15T03:34:37.329Z,2.1
2017-12-15T03:35:57.029Z,2.1
2017-12-15T03:37:16.732Z,2.1
2017-12-15T03:38:36.461Z,2.1
2017-12-15T03:39:58.688Z,2.1
2017-12-15T03:41:28.506Z,2.1
2017-12-15T03:42:48.205Z,2.1
2017-12-15T03:44:07.918Z,2.1
2017-12-15T03:45:27.638Z,2.1
2017-12-15T03:46:49.887Z,2.1
2017-12-15T03:48:14.699Z,2.1
2017-12-15T03:49:39.522Z,2.2
2017-12-15T03:51:01.796Z,2.2
2017-12-15T03:52:21.506Z,2.2
2017-12-15T03:53:43.757Z,2.2
2017-12-15T03:55:03.461Z,2.2
2017-12-15T03:56:33.333Z,2.2
2017-12-15T03:57:55.598Z,2.2
2017-12-15T03:59:15.298Z,2.2
2017-12-15T04:00:35.063Z,2.3
2017-12-15T04:01:57.309Z,2.3
2017-12-15T04:03:22.114Z,2.3
2017-12-15T04:04:49.448Z,2.3
2017-12-15T04:06:09.220Z,2.3
2017-12-15T04:07:28.996Z,2.4
2017-12-15T04:08:48.689Z,2.4
2017-12-15T04:10:10.971Z,2.4
2017-12-15T04:11:35.745Z,2.4
2017-12-15T04:12:58.015Z,2.4
2017-12-15T04:14:17.719Z,2.4
2017-12-15T04:15:40.034Z,2.3
2017-12-15T04:17:02.277Z,2.3
2017-12-15T04:18:24.538Z,2.4
2017-12-15T04:19:56.897Z,2.3
2017-12-15T04:21:24.174Z,2.4
2017-12-15T04:22:43.957Z,2.4
2017-12-15T04:24:03.656Z,2.3
2017-12-15T04:25:33.533Z,2.2
2017-12-15T04:26:55.753Z,2.2
2017-12-15T04:28:23.067Z,2.2
2017-12-15T04:29:45.325Z,2.2
2017-12-15T04:31:07.580Z,2.2
2017-12-15T04:32:29.837Z,2.2
2017-12-15T04:33:54.658Z,2.2
2017-12-15T04:35:14.375Z,2.1
2017-12-15T04:36:34.085Z,2.1
2017-12-15T04:37:56.376Z,2
2017-12-15T04:39:16.086Z,2
2017-12-15T04:40:35.793Z,2
2017-12-15T04:41:55.514Z,1.9
2017-12-15T04:43:25.351Z,1.9
2017-12-15T04:44:47.616Z,1.8
2017-12-15T04:46:12.419Z,1.9
2017-12-15T04:47:32.128Z,1.8
2017-12-15T04:48:51.872Z,1.9
2017-12-15T04:50:11.583Z,1.8
2017-12-15T04:51:33.823Z,1.9
2017-12-15T04:52:53.571Z,1.9
2017-12-15T04:54:13.273Z,1.8
2017-12-15T04:55:33.055Z,1.8
2017-12-15T04:56:52.805Z,1.8
2017-12-15T04:58:15.077Z,1.9
2017-12-15T04:59:34.815Z,1.9
2017-12-15T05:00:59.676Z,1.8
2017-12-15T05:02:29.530Z,1.8
2017-12-15T05:03:56.846Z,1.8
2017-12-15T05:05:16.581Z,1.8
2017-12-15T05:06:43.881Z,1.8
2017-12-15T05:08:03.628Z,1.7
2017-12-15T05:09:25.878Z,1.7
2017-12-15T05:10:50.639Z,1.7
2017-12-15T05:12:10.341Z,1.7
2017-12-15T05:13:30.103Z,1.6
2017-12-15T05:14:49.855Z,1.6
2017-12-15T05:16:09.590Z,1.6
2017-12-15T05:17:29.332Z,1.6
2017-12-15T05:18:51.640Z,1.5
2017-12-15T05:20:11.368Z,1.5
2017-12-15T05:21:31.063Z,1.5
2017-12-15T05:22:50.824Z,1.5
2017-12-15T05:24:13.113Z,1.5
2017-12-15T05:25:32.815Z,1.5
2017-12-15T05:26:52.565Z,1.5
2017-12-15T05:28:12.269Z,1.4
2017-12-15T05:29:32.012Z,1.4
2017-12-15T05:30:54.273Z,1.4
2017-12-15T05:32:13.990Z,1.4
2017-12-15T05:33:36.238Z,1.4
2017-12-15T05:35:01.013Z,1.5
2017-12-15T05:36:20.760Z,1.5
2017-12-15T05:37:40.464Z,1.5
2017-12-15T05:39:02.709Z,1.5
2017-12-15T05:40:22.408Z,1.5
2017-12-15T05:41:42.115Z,1.4
2017-12-15T05:43:01.810Z,1.4
2017-12-15T05:44:21.545Z,1.4
2017-12-15T05:45:41.240Z,1.4
2017-12-15T05:47:00.945Z,1.4
2017-12-15T05:48:23.206Z,1.4
2017-12-15T05:49:45.450Z,1.4
2017-12-15T05:51:05.170Z,1.4
2017-12-15T05:52:29.922Z,1.5
2017-12-15T05:53:49.642Z,1.5
2017-12-15T05:55:09.384Z,1.5
2017-12-15T05:56:31.677Z,1.5
2017-12-15T05:57:53.930Z,1.5
2017-12-15T05:59:21.230Z,1.5
2017-12-15T06:00:40.951Z,1.5
2017-12-15T06:02:00.645Z,1.5
2017-12-15T06:03:33.014Z,1.5
2017-12-15T06:04:57.766Z,1.5
2017-12-15T06:06:20.046Z,1.5
2017-12-15T06:07:39.754Z,1.5
2017-12-15T06:09:02.025Z,1.5
2017-12-15T06:10:21.732Z,1.5
2017-12-15T06:11:49.076Z,1.5
2017-12-15T06:13:13.856Z,1.5
2017-12-15T06:14:36.089Z,1.5
2017-12-15T06:15:58.348Z,1.5
2017-12-15T06:17:18.078Z,1.5
2017-12-15T06:18:45.381Z,1.5
2017-12-15T06:20:07.641Z,1.5
2017-12-15T06:21:29.890Z,1.5
2017-12-15T06:22:49.674Z,1.5
2017-12-15T06:24:19.532Z,1.4
2017-12-15T06:25:41.760Z,1.3
2017-12-15T06:27:04.014Z,1.3
2017-12-15T06:28:26.276Z,1.3
2017-12-15T06:29:45.981Z,1.3
2017-12-15T06:31:10.743Z,1.3
2017-12-15T06:32:30.447Z,1.4
2017-12-15T06:33:50.230Z,1.4
2017-12-15T06:35:12.475Z,1.4
2017-12-15T06:36:34.713Z,1.4
2017-12-15T06:37:54.435Z,1.4
2017-12-15T06:39:14.200Z,1.4
2017-12-15T06:40:33.929Z,1.4
2017-12-15T06:41:56.206Z,1.5
2017-12-15T06:43:15.936Z,1.6
2017-12-15T06:44:35.662Z,1.6
2017-12-15T06:45:55.366Z,1.6
2017-12-15T06:47:17.593Z,1.6
2017-12-15T06:48:37.328Z,1.6
2017-12-15T06:50:09.703Z,1.6
2017-12-15T06:51:29.453Z,1.6
2017-12-15T06:52:49.209Z,1.5
2017-12-15T06:54:11.438Z,1.5
2017-12-15T06:55:33.780Z,1.3
2017-12-15T06:57:06.165Z,1.3
2017-12-15T06:58:41.038Z,1.4
2017-12-15T07:00:03.279Z,1.5
2017-12-15T07:01:28.054Z,1.6
2017-12-15T07:02:57.888Z,1.6
2017-12-15T07:04:17.638Z,1.6
2017-12-15T07:05:39.873Z,1.7
2017-12-15T07:07:04.664Z,1.6
2017-12-15T07:08:26.902Z,1.6
2017-12-15T07:09:46.598Z,1.4
2017-12-15T07:11:08.855Z,1.4
2017-12-15T07:12:31.102Z,1.4
2017-12-15T07:13:50.805Z,1.4
2017-12-15T07:15:15.631Z,1.4
2017-12-15T07:16:37.860Z,1.4
2017-12-15T07:17:57.594Z,1.5
2017-12-15T07:19:27.476Z,1.6
2017-12-15T07:20:47.172Z,1.6
2017-12-15T07:22:14.483Z,1.6
2017-12-15T07:23:34.302Z,1.6
2017-12-15T07:24:54.077Z,1.6
2017-12-15T07:26:13.856Z,1.7
2017-12-15T07:27:36.143Z,1.7
2017-12-15T07:28:55.847Z,1.7
2017-12-15T07:30:18.090Z,1.7
2017-12-15T07:31:40.325Z,1.8
2017-12-15T07:33:02.569Z,1.8
2017-12-15T07:34:24.838Z,1.8
2017-12-15T07:35:57.192Z,1.9
2017-12-15T07:37:16.906Z,1.9
2017-12-15T07:38:39.168Z,1.9
2017-12-15T07:39:58.927Z,1.9
2017-12-15T07:41:18.722Z,1.9
2017-12-15T07:42:53.621Z,1.8
2017-12-15T07:44:18.395Z,1.9
2017-12-15T07:45:38.118Z,1.9
2017-12-15T07:46:57.835Z,1.9
2017-12-15T07:48:17.556Z,1.9
2017-12-15T07:49:42.328Z,2
2017-12-15T07:51:04.620Z,2
2017-12-15T07:52:24.319Z,2.1
2017-12-15T07:53:44.108Z,2.2
2017-12-15T07:55:08.892Z,2.2
2017-12-15T07:56:43.819Z,2.2
2017-12-15T07:58:03.624Z,2.2
2017-12-15T07:59:28.450Z,2.3
2017-12-15T08:00:53.209Z,2.2
2017-12-15T08:02:15.545Z,2.2
2017-12-15T08:03:47.901Z,2.2
2017-12-15T08:05:07.600Z,2.2
2017-12-15T08:06:29.898Z,2.3
2017-12-15T08:07:52.145Z,2.3
2017-12-15T08:09:19.496Z,2.3
2017-12-15T08:10:41.735Z,2.3
2017-12-15T08:12:14.149Z,2.4
2017-12-15T08:13:38.964Z,2.5
2017-12-15T08:14:58.688Z,2.5
2017-12-15T08:16:20.960Z,2.5
2017-12-15T08:17:40.672Z,2.5
2017-12-15T08:19:02.899Z,2.5
2017-12-15T08:20:22.602Z,2.4
2017-12-15T08:21:42.366Z,2.4
2017-12-15T08:23:09.669Z,2.4
2017-12-15T08:24:29.389Z,2.4
2017-12-15T08:26:01.723Z,2.3
2017-12-15T08:27:26.495Z,2.3
2017-12-15T08:28:46.212Z,2.3
2017-12-15T08:30:10.987Z,2.4
2017-12-15T08:31:30.685Z,2.3
2017-12-15T08:32:50.391Z,2.4
2017-12-15T08:34:10.096Z,2.4
2017-12-15T08:35:29.820Z,2.6
2017-12-15T08:36:49.510Z,2.7
2017-12-15T08:38:16.803Z,2.8
2017-12-15T08:39:39.075Z,2.6
2017-12-15T08:41:01.326Z,2.6
2017-12-15T08:42:21.086Z,2.6
2017-12-15T08:43:40.782Z,2.7
2017-12-15T08:45:00.484Z,2.9
2017-12-15T08:46:20.256Z,3.1
2017-12-15T08:47:45.074Z,3.2
2017-12-15T08:49:07.305Z,3.1
2017-12-15T08:50:29.541Z,3
2017-12-15T08:51:54.367Z,3
2017-12-15T08:53:14.116Z,2.9
2017-12-15T08:54:41.426Z,2.9
2017-12-15T08:56:03.705Z,2.8
2017-12-15T08:57:33.561Z,2.8
2017-12-15T08:59:05.918Z,2.6
2017-12-15T09:00:25.641Z,2.6
2017-12-15T09:01:47.920Z,2.6
2017-12-15T09:03:10.190Z,2.6
2017-12-15T09:04:29.933Z,2.6
2017-12-15T09:05:52.196Z,2.6
2017-12-15T09:07:16.990Z,2.6
2017-12-15T09:08:36.708Z,2.6
2017-12-15T09:09:56.462Z,2.4
2017-12-15T09:11:26.284Z,2.6
2017-12-15T09:12:53.622Z,2.5
2017-12-15T09:14:18.485Z,2.1
2017-12-15T09:15:40.728Z,2
2017-12-15T09:17:10.579Z,2
2017-12-15T09:18:30.292Z,1.9
2017-12-15T09:19:50.021Z,1.8
2017-12-15T09:21:22.376Z,1.8
2017-12-15T09:22:49.667Z,1.8
2017-12-15T09:24:11.953Z,1.8
2017-12-15T09:25:36.740Z,1.8
2017-12-15T09:26:56.466Z,1.8
2017-12-15T09:28:16.167Z,1.8
2017-12-15T09:29:35.881Z,1.7
2017-12-15T09:30:55.644Z,1.6
2017-12-15T09:32:15.364Z,1.7
2017-12-15T09:33:37.603Z,2.1
2017-12-15T09:34:57.306Z,2.4
2017-12-15T09:36:24.678Z,2.8
2017-12-15T09:37:49.532Z,3
2017-12-15T09:39:11.777Z,3.1
2017-12-15T09:40:34.030Z,3.1
2017-12-15T09:41:56.282Z,3
2017-12-15T09:43:18.582Z,2.9
2017-12-15T09:44:40.841Z,2.8
2017-12-15T09:46:00.540Z,2.6
2017-12-15T09:47:25.305Z,2.5
2017-12-15T09:48:47.542Z,2.3
2017-12-15T09:50:09.778Z,2.3
2017-12-15T09:51:29.473Z,2.2
2017-12-15T09:52:49.228Z,2.1
2017-12-15T09:54:08.986Z,2
2017-12-15T09:55:28.731Z,2
2017-12-15T09:56:48.503Z,2
2017-12-15T09:58:13.323Z,2
2017-12-15T09:59:58.378Z,2
2017-12-15T10:01:18.107Z,2
2017-12-15T10:02:37.862Z,2.1
2017-12-15T10:03:57.593Z,2.1
2017-12-15T10:05:17.315Z,2.1
2017-12-15T10:06:37.055Z,2
2017-12-15T10:07:59.333Z,2
2017-12-15T10:09:21.567Z,2
2017-12-15T10:10:43.797Z,2
2017-12-15T10:12:03.575Z,2
2017-12-15T10:13:25.816Z,2.3
2017-12-15T10:14:50.608Z,2.5
2017-12-15T10:16:30.566Z,2.7
2017-12-15T10:17:57.907Z,2.7
2017-12-15T10:19:22.679Z,2.8
2017-12-15T10:20:47.509Z,2.8
2017-12-15T10:22:07.226Z,2.7
2017-12-15T10:23:26.934Z,2.5
2017-12-15T10:24:56.775Z,2.4
2017-12-15T10:26:16.481Z,2.7
2017-12-15T10:27:46.357Z,3.1
2017-12-15T10:29:06.094Z,3.1
2017-12-15T10:30:25.806Z,3.2
2017-12-15T10:32:03.321Z,3.5
2017-12-15T10:33:25.573Z,3.8
2017-12-15T10:34:45.283Z,3.8
2017-12-15T10:36:05.046Z,3.8
2017-12-15T10:37:24.752Z,4
2017-12-15T10:38:44.455Z,4.1
2017-12-15T10:40:09.232Z,3.9
2017-12-15T10:41:33.992Z,4
2017-12-15T10:42:53.718Z,4.1
2017-12-15T10:44:13.467Z,4.2
2017-12-15T10:45:40.820Z,4.2
2017-12-15T10:47:03.123Z,4.4
2017-12-15T10:48:22.879Z,4.2
2017-12-15T10:49:42.593Z,4.3
2017-12-15T10:51:02.325Z,4.3
2017-12-15T10:52:24.604Z,3.9
2017-12-15T10:53:46.877Z,3.8
2017-12-15T10:55:06.586Z,3.6
2017-12-15T10:56:28.867Z,3.4
2017-12-15T10:57:48.571Z,3.4
2017-12-15T10:59:08.303Z,3.2
2017-12-15T11:00:28.039Z,3.1
2017-12-15T11:01:47.777Z,2.9
2017-12-15T11:03:07.550Z,2.9
2017-12-15T11:04:29.801Z,2.8
2017-12-15T11:05:54.570Z,2.8
2017-12-15T11:07:16.811Z,2.8
2017-12-15T11:08:39.103Z,2.8
2017-12-15T11:09:58.851Z,2.9
2017-12-15T11:11:28.671Z,3.4
2017-12-15T11:12:48.398Z,3.7
2017-12-15T11:14:08.146Z,4
2017-12-15T11:15:30.444Z,4.8
2017-12-15T11:16:50.150Z,5.1
2017-12-15T11:18:09.845Z,5.2
2017-12-15T11:19:37.136Z,5.2
2017-12-15T11:20:59.414Z,5
2017-12-15T11:22:19.159Z,4.5
2017-12-15T11:23:43.916Z,4.1
2017-12-15T11:25:08.684Z,4
2017-12-15T11:26:30.946Z,4
2017-12-15T11:28:00.792Z,3.9
2017-12-15T11:29:25.574Z,3.9
2017-12-15T11:30:47.858Z,3.9
2017-12-15T11:32:07.653Z,3.8
2017-12-15T11:33:27.398Z,3.7
2017-12-15T11:34:47.139Z,3.6
2017-12-15T11:36:09.404Z,3.5
2017-12-15T11:37:29.125Z,3.5
2017-12-15T11:38:48.826Z,3.4
2017-12-15T11:40:08.531Z,3.5
2017-12-15T11:41:28.256Z,4.3
2017-12-15T11:42:53.104Z,5
2017-12-15T11:44:12.836Z,5.4
2017-12-15T11:45:32.592Z,5.5
2017-12-15T11:46:52.364Z,5.7
2017-12-15T11:48:17.194Z,5.7
2017-12-15T11:49:39.489Z,5.5
2017-12-15T11:50:59.185Z,5.4
2017-12-15T11:52:18.920Z,5.3
2017-12-15T11:53:38.643Z,5.2
2017-12-15T11:55:03.411Z,5.1
2017-12-15T11:56:23.144Z,5.1
2017-12-15T11:57:45.409Z,5.5
2017-12-15T11:59:05.128Z,5.7
2017-12-15T12:00:24.827Z,5.8
2017-12-15T12:01:54.663Z,5.5
2017-12-15T12:03:14.369Z,5.6
2017-12-15T12:04:39.150Z,5.7
2017-12-15T12:06:11.503Z,5.8
2017-12-15T12:07:38.815Z,5.4
2017-12-15T12:09:03.586Z,5.2
2017-12-15T12:10:23.362Z,5.3
2017-12-15T12:11:43.096Z,5.2
2017-12-15T12:13:02.866Z,4.8
2017-12-15T12:14:22.661Z,4.6
2017-12-15T12:15:42.473Z,4.3
2017-12-15T12:17:04.710Z,4.3
2017-12-15T12:18:26.954Z,4.3
2017-12-15T12:19:54.252Z,4.7
2017-12-15T12:21:24.137Z,4.9
2017-12-15T12:22:51.473Z,4.9
2017-12-15T12:24:13.709Z,5
2017-12-15T12:25:33.410Z,5.2
2017-12-15T12:26:53.155Z,5.3
2017-12-15T12:28:12.896Z,5.7
2017-12-15T12:29:40.223Z,6.3
2017-12-15T12:31:07.591Z,6.7
2017-12-15T12:32:27.330Z,6.7
2017-12-15T12:34:12.419Z,7.7
2017-12-15T12:35:34.692Z,8.4
2017-12-15T12:36:56.939Z,8.9
2017-12-15T12:38:16.652Z,9.1
2017-12-15T12:40:04.256Z,8.3
2017-12-15T12:41:24.010Z,7.7
2017-12-15T12:42:51.354Z,7.5
2017-12-15T12:44:21.186Z,7
2017-12-15T12:45:40.934Z,6.9
2017-12-15T12:47:00.662Z,6.6
2017-12-15T12:48:20.374Z,6
2017-12-15T12:49:45.161Z,5.6
2017-12-15T12:51:14.988Z,5.3
2017-12-15T12:52:34.739Z,5.2
2017-12-15T12:53:56.969Z,5.2
2017-12-15T12:55:16.750Z,5.3
2017-12-15T12:56:36.487Z,5.4
2017-12-15T12:57:56.241Z,5.4
2017-12-15T12:59:15.956Z,5.4
2017-12-15T13:00:45.849Z,5.2
2017-12-15T13:02:08.117Z,5
2017-12-15T13:03:27.868Z,4.9
2017-12-15T13:04:47.621Z,4.8
2017-12-15T13:06:09.891Z,4.7
2017-12-15T13:07:34.670Z,4.6
2017-12-15T13:08:56.905Z,4.5
2017-12-15T13:10:16.671Z,4.4
2017-12-15T13:11:36.406Z,4.4
2017-12-15T13:12:56.154Z,4.3
2017-12-15T13:14:18.431Z,4.4
2017-12-15T13:15:38.143Z,4.4
2017-12-15T13:16:57.888Z,4.5
2017-12-15T13:18:17.618Z,4.5
2017-12-15T13:19:47.471Z,4.4
2017-12-15T13:21:07.208Z,4.3
2017-12-15T13:22:29.448Z,4.1
2017-12-15T13:23:51.718Z,4.2
2017-12-15T13:25:16.517Z,4.1
2017-12-15T13:26:41.307Z,4.2
2017-12-15T13:28:06.103Z,4
2017-12-15T13:29:28.326Z,3.8
2017-12-15T13:30:48.030Z,3.9
2017-12-15T13:32:10.253Z,4
2017-12-15T13:33:42.685Z,3.8
2017-12-15T13:35:04.919Z,3.8
2017-12-15T13:36:29.693Z,3.9
2017-12-15T13:37:49.389Z,3.9
2017-12-15T13:39:09.094Z,3.9
2017-12-15T13:40:28.796Z,4
2017-12-15T13:41:56.138Z,4
2017-12-15T13:43:15.842Z,4
2017-12-15T13:44:38.115Z,3.9
2017-12-15T13:45:57.834Z,3.8
2017-12-15T13:47:25.125Z,3.7
2017-12-15T13:48:44.834Z,3.7
2017-12-15T13:50:04.566Z,3.7
2017-12-15T13:51:24.290Z,3.7
2017-12-15T13:52:46.533Z,3.8
2017-12-15T13:54:06.266Z,3.7
2017-12-15T13:55:28.533Z,3.8
2017-12-15T13:56:50.760Z,3.8
2017-12-15T13:58:28.241Z,3.7
2017-12-15T13:59:47.943Z,3.7
2017-12-15T14:01:07.723Z,3.7
2017-12-15T14:02:27.452Z,3.8
2017-12-15T14:03:47.194Z,3.7
2017-12-15T14:05:06.924Z,3.6
2017-12-15T14:06:29.229Z,3.7
2017-12-15T14:07:51.494Z,3.6
2017-12-15T14:09:11.240Z,3.6
2017-12-15T14:10:33.471Z,3.7
2017-12-15T14:11:58.253Z,3.7
2017-12-15T14:13:20.491Z,3.7
2017-12-15T14:14:40.205Z,3.7
2017-12-15T14:15:59.926Z,3.7
2017-12-15T14:17:19.663Z,3.6
2017-12-15T14:18:39.354Z,3.6
2017-12-15T14:19:59.060Z,3.6
2017-12-15T14:21:23.822Z,3.6
2017-12-15T14:22:56.226Z,3.6
2017-12-15T14:24:15.949Z,3.6
2017-12-15T14:25:35.661Z,3.7
2017-12-15T14:26:57.917Z,3.7
2017-12-15T14:28:17.631Z,3.7
2017-12-15T14:29:39.896Z,3.6
2017-12-15T14:30:59.604Z,3.6
2017-12-15T14:32:19.318Z,3.6
2017-12-15T14:33:39.091Z,3.6
2017-12-15T14:35:01.332Z,3.6
2017-12-15T14:36:21.039Z,3.5
2017-12-15T14:37:40.739Z,3.5
2017-12-15T14:39:05.593Z,3.4
2017-12-15T14:40:27.839Z,3.4
2017-12-15T14:41:47.569Z,3.3
2017-12-15T14:43:09.812Z,3.2
2017-12-15T14:44:34.604Z,3.1
2017-12-15T14:46:14.601Z,3.1
2017-12-15T14:47:34.297Z,3.1
2017-12-15T14:48:54.000Z,3
2017-12-15T14:50:16.290Z,3
2017-12-15T14:51:36.016Z,3
2017-12-15T14:52:55.727Z,2.9
2017-12-15T14:54:18.446Z,2.8
2017-12-15T14:55:43.221Z,2.8
2017-12-15T14:57:02.940Z,2.7
2017-12-15T14:58:22.648Z,2.7
2017-12-15T14:59:55.055Z,2.6
2017-12-15T15:01:19.832Z,2.5
2017-12-15T15:02:44.579Z,2.5
2017-12-15T15:04:04.274Z,2.5
2017-12-15T15:05:26.527Z,2.5
2017-12-15T15:06:46.289Z,2.5
2017-12-15T15:08:08.523Z,2.5
2017-12-15T15:09:28.230Z,2.4
2017-12-15T15:10:47.929Z,2.5
2017-12-15T15:12:12.706Z,2.5
2017-12-15T15:13:32.423Z,2.5
2017-12-15T15:14:52.199Z,2.5
2017-12-15T15:16:11.980Z,2.5
2017-12-15T15:17:31.707Z,2.6
2017-12-15T15:18:56.484Z,2.6
2017-12-15T15:20:21.250Z,2.6
2017-12-15T15:21:48.597Z,2.6
2017-12-15T15:23:08.329Z,2.6
2017-12-15T15:24:30.592Z,2.6
2017-12-15T15:25:52.836Z,2.6
2017-12-15T15:27:12.529Z,2.5
2017-12-15T15:28:37.322Z,2.5
2017-12-15T15:29:59.567Z,2.5
2017-12-15T15:31:19.275Z,2.5
2017-12-15T15:32:38.971Z,2.5
2017-12-15T15:34:03.773Z,2.5
2017-12-15T15:35:23.482Z,2.5
2017-12-15T15:36:43.189Z,2.5
2017-12-15T15:38:15.553Z,2.4
2017-12-15T15:39:35.349Z,2.4
2017-12-15T15:41:00.137Z,2.4
2017-12-15T15:42:22.370Z,2.4
2017-12-15T15:43:44.611Z,2.4
2017-12-15T15:45:04.382Z,2.4
2017-12-15T15:46:24.080Z,2.4
2017-12-15T15:47:46.319Z,2.4
2017-12-15T15:49:06.034Z,2.4
2017-12-15T15:50:25.743Z,2.4
2017-12-15T15:51:45.499Z,2.4
2017-12-15T15:53:05.244Z,2.4
2017-12-15T15:54:30.006Z,2.4
2017-12-15T15:55:49.772Z,2.4
2017-12-15T15:57:09.475Z,2.4
2017-12-15T15:58:31.787Z,2.4
2017-12-15T15:59:56.598Z,2.5
2017-12-15T16:01:18.897Z,2.5
2017-12-15T16:02:46.220Z,2.6
2017-12-15T16:04:08.500Z,2.6
2017-12-15T16:05:35.845Z,2.5
2017-12-15T16:06:55.573Z,2.5
2017-12-15T16:08:20.363Z,2.5
2017-12-15T16:09:40.066Z,2.5
2017-12-15T16:10:59.851Z,2.5
2017-12-15T16:12:22.130Z,2.5
2017-12-15T16:13:41.845Z,2.5
2017-12-15T16:15:01.623Z,2.6
2017-12-15T16:16:23.869Z,2.6
2017-12-15T16:17:46.100Z,2.7
2017-12-15T16:19:08.347Z,2.7
2017-12-15T16:20:28.054Z,2.7
2017-12-15T16:21:47.801Z,2.6
2017-12-15T16:23:07.534Z,2.5
2017-12-15T16:24:37.386Z,2.5
2017-12-15T16:26:09.765Z,2.5
2017-12-15T16:27:39.585Z,2.4
2017-12-15T16:28:59.318Z,2.3
2017-12-15T16:30:19.026Z,2.3
2017-12-15T16:31:38.727Z,2.4
2017-12-15T16:32:58.420Z,2.4
2017-12-15T16:34:20.655Z,2.4
2017-12-15T16:35:40.359Z,2.4
2017-12-15T16:37:02.593Z,2.4
2017-12-15T16:38:42.627Z,2.4
2017-12-15T16:40:02.354Z,2.4
2017-12-15T16:41:22.095Z,2.4
2017-12-15T16:42:41.882Z,2.4
2017-12-15T16:44:01.616Z,2.4
2017-12-15T16:45:28.926Z,2.4
2017-12-15T16:46:48.639Z,2.5
2017-12-15T16:48:10.886Z,2.5
2017-12-15T16:49:30.641Z,2.5
2017-12-15T16:50:50.386Z,2.6
2017-12-15T16:52:10.084Z,2.5
2017-12-15T16:53:29.786Z,2.5
2017-12-15T16:54:54.566Z,2.6
2017-12-15T16:56:14.333Z,2.6
2017-12-15T16:57:34.048Z,2.6
2017-12-15T16:59:01.379Z,2.5
2017-12-15T17:00:21.107Z,2.5
2017-12-15T17:01:45.920Z,2.6
2017-12-15T17:03:05.679Z,2.6
2017-12-15T17:04:27.913Z,2.5
2017-12-15T17:05:50.161Z,2.5
2017-12-15T17:07:14.962Z,2.5
2017-12-15T17:08:42.278Z,2.5
2017-12-15T17:10:12.137Z,2.5
2017-12-15T17:11:31.875Z,2.4
2017-12-15T17:12:51.658Z,2.3
2017-12-15T17:14:13.883Z,2.3
2017-12-15T17:15:48.792Z,2.3
2017-12-15T17:17:08.486Z,2.3
2017-12-15T17:18:28.206Z,2.3
2017-12-15T17:19:47.903Z,2.4
2017-12-15T17:21:10.127Z,2.3
2017-12-15T17:22:29.826Z,2.4
2017-12-15T17:23:52.096Z,2.4
2017-12-15T17:25:19.398Z,2.5
2017-12-15T17:26:39.117Z,2.4
2017-12-15T17:28:01.393Z,2.5
2017-12-15T17:29:21.205Z,2.5
2017-12-15T17:30:48.522Z,2.5
2017-12-15T17:32:08.217Z,2.5
2017-12-15T17:33:27.906Z,2.5
2017-12-15T17:34:47.620Z,2.5
2017-12-15T17:36:07.375Z,2.4
2017-12-15T17:37:29.665Z,2.4
2017-12-15T17:38:51.915Z,2.4
2017-12-15T17:40:11.669Z,2.3
2017-12-15T17:41:39.001Z,2.2
2017-12-15T17:42:58.747Z,2.1
2017-12-15T17:44:21.081Z,2.1
2017-12-15T17:45:40.827Z,2.1
2017-12-15T17:47:05.608Z,2.1
2017-12-15T17:48:25.367Z,2
2017-12-15T17:49:45.120Z,2
2017-12-15T17:51:09.902Z,2
2017-12-15T17:52:32.139Z,2
2017-12-15T17:53:54.357Z,2
2017-12-15T17:55:21.682Z,2
2017-12-15T17:56:46.521Z,2
2017-12-15T17:58:06.266Z,2
2017-12-15T17:59:26.012Z,2.1
2017-12-15T18:00:45.766Z,2.1
2017-12-15T18:02:10.640Z,2.1
2017-12-15T18:03:30.384Z,2.3
2017-12-15T18:04:50.085Z,2.3
2017-12-15T18:06:12.326Z,2.3
2017-12-15T18:07:32.031Z,2.3
2017-12-15T18:08:54.246Z,2.3
2017-12-15T18:10:13.989Z,2.3
2017-12-15T18:11:33.735Z,2.3
2017-12-15T18:13:06.135Z,2.4
2017-12-15T18:14:30.919Z,2.3
2017-12-15T18:15:53.162Z,2.3
2017-12-15T18:17:12.859Z,2.2
2017-12-15T18:18:32.598Z,2.2
2017-12-15T18:19:57.368Z,2.2
2017-12-15T18:21:22.158Z,2.1
2017-12-15T18:22:44.384Z,2.1
2017-12-15T18:24:04.096Z,2
2017-12-15T18:25:23.792Z,2.1
2017-12-15T18:26:43.489Z,2
2017-12-15T18:28:05.730Z,2
2017-12-15T18:29:25.462Z,2
2017-12-15T18:30:47.708Z,2
2017-12-15T18:32:07.426Z,2
2017-12-15T18:33:44.846Z,1.9
2017-12-15T18:35:07.081Z,1.9
2017-12-15T18:36:34.431Z,1.8
2017-12-15T18:37:54.140Z,1.8
2017-12-15T18:39:16.410Z,1.8
2017-12-15T18:40:36.157Z,1.8
2017-12-15T18:41:55.948Z,1.8
2017-12-15T18:43:23.300Z,1.9
2017-12-15T18:44:50.591Z,1.8
2017-12-15T18:46:12.933Z,1.8
2017-12-15T18:47:42.799Z,1.8
2017-12-15T18:49:02.509Z,1.8
2017-12-15T18:50:29.793Z,1.9
2017-12-15T18:51:49.586Z,1.9
2017-12-15T18:53:14.348Z,2
2017-12-15T18:54:36.580Z,2
2017-12-15T18:55:56.310Z,2
2017-12-15T18:57:18.563Z,2
2017-12-15T18:58:45.875Z,2
2017-12-15T19:00:05.610Z,2.1